Time;durP1;ratioP1;P1;durP2;ratioP2;P2;SDS_P1;SDS_P2;PMS_P1;PMS_P2;Temp;Humidity;BMP_temperature;BMP_pressure;BME280_temperature;BME280_humidity;BME280_pressure;Samples;Min_cycle;Max_cycle;Signal;HPM_P1;HPM_P2
2023/04/26 00:01:45;;;;;;;0.85;0.40;;;;;;;9.43;74.70;100206.22;5043222;28;20120;-71
2023/04/26 00:04:11;;;;;;;2.90;0.30;;;;;;;9.43;75.05;100214.28;5042406;28;20112;-71
2023/04/26 00:06:36;;;;;;;0.98;0.30;;;;;;;9.41;74.43;100212.63;5043440;28;20032;-71
2023/04/26 00:09:03;;;;;;;0.73;0.32;;;;;;;9.32;74.74;100216.53;5043582;28;20036;-72
2023/04/26 00:11:29;;;;;;;0.98;0.20;;;;;;;9.31;73.59;100201.47;5039330;28;20021;-70
2023/04/26 00:13:54;;;;;;;1.38;0.30;;;;;;;9.31;72.91;100206.84;5034041;28;20045;-70
2023/04/26 00:16:20;;;;;;;2.25;0.30;;;;;;;9.47;71.31;100210.13;5055732;28;20037;-71
2023/04/26 00:18:45;;;;;;;0.47;0.30;;;;;;;9.37;70.16;100213.22;5039220;28;20037;-71
2023/04/26 00:21:11;;;;;;;0.38;0.30;;;;;;;9.26;71.12;100198.56;5042494;28;20049;-71
2023/04/26 00:23:37;;;;;;;0.47;0.40;;;;;;;8.99;72.45;100200.38;5035183;28;20022;-71
2023/04/26 00:26:03;;;;;;;0.60;0.38;;;;;;;9.09;73.05;100213.41;5021802;28;20029;-71
2023/04/26 00:28:28;;;;;;;2.55;0.35;;;;;;;9.05;72.81;100209.50;5039673;28;20040;-71
2023/04/26 00:30:56;;;;;;;1.23;0.32;;;;;;;9.05;72.72;100194.22;5059480;28;20097;-71
2023/04/26 00:33:22;;;;;;;0.50;0.30;;;;;;;8.83;71.62;100198.91;5043715;28;20072;-71
2023/04/26 00:35:49;;;;;;;0.90;0.30;;;;;;;9.03;71.52;100214.22;5045322;28;20041;-70
2023/04/26 00:38:14;;;;;;;1.20;0.40;;;;;;;9.15;72.65;100209.91;5046761;28;20025;-71
2023/04/26 00:40:39;;;;;;;0.30;0.30;;;;;;;9.02;71.02;100217.94;5043939;28;20056;-70
2023/04/26 00:43:05;;;;;;;0.98;0.38;;;;;;;8.82;70.48;100221.41;5055439;28;20273;-71
2023/04/26 00:45:31;;;;;;;1.48;0.40;;;;;;;8.85;70.25;100212.13;5046145;28;20220;-71
2023/04/26 00:48:00;;;;;;;2.78;0.40;;;;;;;8.82;69.85;100215.22;5045466;28;20041;-71
2023/04/26 00:50:25;;;;;;;2.58;0.40;;;;;;;8.63;70.03;100172.03;5047206;28;20368;-71
2023/04/26 00:52:51;;;;;;;1.27;0.45;;;;;;;8.96;69.02;100233.00;5045220;28;20029;-71
2023/04/26 00:55:17;;;;;;;0.50;0.20;;;;;;;8.82;69.42;100212.53;5045238;28;20033;-71
2023/04/26 00:57:44;;;;;;;0.55;0.40;;;;;;;8.87;70.46;100234.19;5043800;28;20048;-70
2023/04/26 01:00:10;;;;;;;1.48;0.40;;;;;;;8.93;70.01;100233.38;5045475;28;20025;-70
2023/04/26 01:02:37;;;;;;;1.45;0.40;;;;;;;8.88;70.30;100223.28;5038789;28;20033;-71
2023/04/26 01:05:03;;;;;;;3.13;0.50;;;;;;;8.80;70.32;100220.75;5046727;28;20026;-71
2023/04/26 01:07:29;;;;;;;1.00;0.50;;;;;;;8.93;69.64;100228.03;5044657;28;20049;-71
2023/04/26 01:09:56;;;;;;;0.77;0.30;;;;;;;8.96;68.99;100238.34;5044763;28;20033;-72
2023/04/26 01:12:23;;;;;;;0.85;0.40;;;;;;;9.11;70.08;100230.16;5061001;28;20030;-71
2023/04/26 01:14:48;;;;;;;1.05;0.32;;;;;;;8.84;70.85;100208.63;5028194;28;20022;-71
2023/04/26 01:17:14;;;;;;;0.57;0.30;;;;;;;8.86;70.45;100236.06;5045926;28;20037;-71
2023/04/26 01:19:49;;;;;;;1.13;0.25;;;;;;;8.74;69.81;100210.00;5025719;28;20201;-71
2023/04/26 01:22:15;;;;;;;0.70;0.40;;;;;;;8.83;69.59;100232.94;5055860;28;20057;-70
2023/04/26 01:24:43;;;;;;;1.95;0.50;;;;;;;8.96;70.13;100233.00;5042886;28;20095;-70
2023/04/26 01:27:09;;;;;;;1.67;0.40;;;;;;;8.85;69.87;100233.59;5044475;28;20065;-70
2023/04/26 01:29:34;;;;;;;0.70;0.20;;;;;;;8.52;70.70;100234.28;5028296;28;20021;-71
2023/04/26 01:32:00;;;;;;;0.65;0.20;;;;;;;8.66;72.54;100232.47;5060258;28;20125;-71
2023/04/26 01:34:25;;;;;;;1.63;0.50;;;;;;;8.52;77.26;100228.09;5043590;28;20026;-71
2023/04/26 01:36:51;;;;;;;2.22;0.47;;;;;;;8.07;83.62;100208.88;5043984;28;20060;-71
2023/04/26 01:39:16;;;;;;;1.40;0.40;;;;;;;8.15;84.97;100246.22;5045393;28;20053;-71
2023/04/26 01:41:42;;;;;;;1.10;0.43;;;;;;;8.09;85.07;100241.66;5027004;28;20032;-71
2023/04/26 01:44:07;;;;;;;0.63;0.40;;;;;;;7.94;84.18;100255.97;5044041;28;20052;-71
2023/04/26 01:46:33;;;;;;;0.93;0.38;;;;;;;8.10;83.18;100228.03;5060414;28;20029;-71
2023/04/26 01:48:58;;;;;;;0.55;0.28;;;;;;;8.07;84.17;100247.19;5009185;28;20489;-71
2023/04/26 01:51:24;;;;;;;0.45;0.20;;;;;;;8.01;83.50;100258.69;5042373;28;20033;-71
2023/04/26 01:53:49;;;;;;;1.85;0.52;;;;;;;7.85;84.83;100240.28;5039619;28;20449;-70
2023/04/26 01:56:15;;;;;;;1.02;0.60;;;;;;;8.09;82.63;100257.75;5040955;28;20032;-71
2023/04/26 01:58:41;;;;;;;1.20;0.40;;;;;;;8.15;82.06;100246.22;5058941;28;20029;-71
2023/04/26 02:01:08;;;;;;;1.33;0.40;;;;;;;8.16;81.97;100234.47;5043252;28;20030;-72
2023/04/26 02:03:34;;;;;;;1.20;0.50;;;;;;;8.31;81.44;100245.91;5043041;28;20045;-71
2023/04/26 02:06:00;;;;;;;1.73;0.60;;;;;;;8.45;81.76;100253.03;5043007;28;20032;-72
2023/04/26 02:08:25;;;;;;;1.10;0.40;;;;;;;8.35;81.42;100241.81;5041772;28;20033;-71
2023/04/26 02:10:51;;;;;;;0.77;0.40;;;;;;;8.17;82.26;100242.31;5041537;28;20025;-71
2023/04/26 02:13:16;;;;;;;0.73;0.40;;;;;;;8.15;83.28;100252.41;5022028;28;20034;-72
2023/04/26 02:15:45;;;;;;;2.53;0.47;;;;;;;8.31;83.46;100256.63;5021127;28;20037;-72
2023/04/26 02:18:11;;;;;;;0.77;0.30;;;;;;;8.28;84.64;100249.00;5037282;28;20032;-72
2023/04/26 02:20:41;;;;;;;1.38;0.20;;;;;;;8.19;83.22;100253.66;5053969;28;20026;-71
2023/04/26 02:23:07;;;;;;;0.75;0.30;;;;;;;8.05;83.60;100235.88;5038968;28;20032;-72
2023/04/26 02:25:33;;;;;;;0.80;0.30;;;;;;;8.06;83.38;100250.09;5038283;28;20059;-71
2023/04/26 02:27:58;;;;;;;0.30;0.20;;;;;;;8.25;83.48;100252.06;5053167;28;20124;-72
2023/04/26 02:30:24;;;;;;;1.30;0.30;;;;;;;8.11;82.74;100220.84;5038408;28;20053;-72
2023/04/26 02:32:52;;;;;;;0.60;0.30;;;;;;;8.38;82.33;100256.72;5020050;28;20569;-72
2023/04/26 02:35:18;;;;;;;0.98;0.30;;;;;;;8.33;81.46;100241.16;5053504;28;20488;-71
2023/04/26 02:37:47;;;;;;;1.67;0.35;;;;;;;8.36;80.68;100238.09;5036406;28;20057;-71
2023/04/26 02:40:13;;;;;;;0.82;0.30;;;;;;;8.49;79.65;100226.63;5036787;28;20025;-71
2023/04/26 02:42:39;;;;;;;0.55;0.30;;;;;;;8.77;78.72;100237.25;5036621;28;20036;-71
2023/04/26 02:45:05;;;;;;;0.30;0.20;;;;;;;8.52;79.55;100241.50;5036449;28;20037;-71
2023/04/26 02:47:31;;;;;;;0.22;0.20;;;;;;;8.62;79.56;100250.84;5038255;28;20040;-72
2023/04/26 02:49:57;;;;;;;0.70;0.30;;;;;;;8.60;79.43;100252.06;5041806;28;20037;-72
2023/04/26 02:52:22;;;;;;;0.30;0.20;;;;;;;8.57;78.92;100247.09;5043075;28;20033;-71
2023/04/26 02:54:48;;;;;;;0.30;0.20;;;;;;;8.09;81.41;100238.97;5042045;28;20400;-71
2023/04/26 02:57:13;;;;;;;2.50;0.22;;;;;;;8.59;79.23;100237.81;5041334;28;20444;-71
2023/04/26 02:59:39;;;;;;;1.05;0.10;;;;;;;8.31;80.22;100242.38;5041761;28;20025;-71
2023/04/26 03:02:04;;;;;;;1.45;0.30;;;;;;;8.56;79.27;100246.25;5054617;28;20032;-71
2023/04/26 03:04:35;;;;;;;2.25;0.40;;;;;;;8.56;78.92;100230.16;5007695;28;20021;-71
2023/04/26 03:07:02;;;;;;;1.48;0.30;;;;;;;8.58;78.74;100204.00;5040085;28;20089;-72
2023/04/26 03:09:28;;;;;;;0.60;0.30;;;;;;;8.76;79.04;100234.78;5042567;28;20031;-71
2023/04/26 03:11:53;;;;;;;2.55;0.45;;;;;;;8.66;79.60;100241.34;5038867;28;20092;-71
2023/04/26 03:14:19;;;;;;;1.48;0.30;;;;;;;8.73;79.51;100227.97;5042580;28;20103;-72
2023/04/26 03:16:44;;;;;;;2.78;0.40;;;;;;;8.46;81.10;100222.50;5050124;28;20052;-71
2023/04/26 03:19:10;;;;;;;1.90;0.60;;;;;;;8.50;81.74;100222.09;5041648;28;20033;-71
2023/04/26 03:21:35;;;;;;;1.30;0.25;;;;;;;8.51;82.49;100221.91;5034648;28;20033;-71
2023/04/26 03:24:01;;;;;;;1.65;0.30;;;;;;;8.59;81.59;100226.28;5022743;28;20036;-71
2023/04/26 03:26:26;;;;;;;1.88;0.45;;;;;;;8.35;81.56;100227.59;5039144;28;20052;-71
2023/04/26 03:28:52;;;;;;;1.67;0.30;;;;;;;8.69;79.82;100213.31;5040533;28;20473;-72
2023/04/26 03:31:18;;;;;;;1.00;0.30;;;;;;;8.67;80.01;100223.41;5042600;28;20029;-71
2023/04/26 03:33:43;;;;;;;0.30;0.30;;;;;;;8.59;79.62;100216.38;5040629;28;20025;-71
2023/04/26 03:36:08;;;;;;;1.02;0.30;;;;;;;8.53;79.18;100221.69;5042553;28;20421;-71
2023/04/26 03:38:34;;;;;;;0.30;0.20;;;;;;;8.60;78.05;100217.19;5042002;28;20420;-71
2023/04/26 03:41:00;;;;;;;1.17;0.20;;;;;;;8.42;77.62;100198.97;5042037;28;20052;-71
2023/04/26 03:43:25;;;;;;;0.40;0.20;;;;;;;8.55;76.93;100223.16;5040107;28;20116;-71
2023/04/26 03:45:51;;;;;;;0.20;0.10;;;;;;;8.49;76.74;100221.28;5037696;28;20091;-71
2023/04/26 03:48:16;;;;;;;0.32;0.10;;;;;;;8.37;75.88;100220.16;5037711;28;20088;-70
2023/04/26 03:50:43;;;;;;;0.28;0.20;;;;;;;8.33;75.15;100187.56;5036171;28;20033;-70
2023/04/26 03:53:10;;;;;;;0.17;0.10;;;;;;;8.72;74.42;100226.31;5035982;28;20441;-71
2023/04/26 03:55:36;;;;;;;0.22;0.10;;;;;;;8.61;75.48;100221.50;5037611;28;20121;-70
2023/04/26 03:58:03;;;;;;;0.10;0.10;;;;;;;8.59;75.70;100220.91;5037090;28;20075;-71
2023/04/26 04:00:28;;;;;;;0.30;0.10;;;;;;;8.53;77.34;100221.69;5033042;28;20030;-70
2023/04/26 04:02:54;;;;;;;0.20;0.10;;;;;;;8.42;77.79;100226.59;5044544;28;20051;-67
2023/04/26 04:05:19;;;;;;;0.17;0.10;;;;;;;8.51;78.56;100232.66;5041562;28;20040;-69
2023/04/26 04:07:45;;;;;;;0.95;0.20;;;;;;;8.59;77.84;100231.63;5036434;28;20471;-68
2023/04/26 04:10:11;;;;;;;0.40;0.20;;;;;;;8.42;78.16;100225.78;5040924;28;20055;-70
2023/04/26 04:12:36;;;;;;;0.20;0.20;;;;;;;8.44;78.87;100229.94;5040220;28;20025;-68
2023/04/26 04:15:02;;;;;;;0.70;0.20;;;;;;;9.11;76.68;100240.88;5023280;28;20120;-70
2023/04/26 04:17:28;;;;;;;1.75;0.25;;;;;;;9.52;73.77;100235.34;5038661;28;20021;-70
2023/04/26 04:19:53;;;;;;;0.25;0.13;;;;;;;9.93;72.71;100236.16;5038636;28;20375;-72
2023/04/26 04:22:18;;;;;;;1.52;0.28;;;;;;;10.02;71.96;100240.28;5021522;28;20649;-71
2023/04/26 04:24:44;;;;;;;1.67;0.40;;;;;;;9.50;73.99;100236.56;5039048;28;20623;-72
2023/04/26 04:27:10;;;;;;;1.00;0.20;;;;;;;9.39;74.01;100246.91;5039775;28;20040;-70
2023/04/26 04:29:35;;;;;;;1.67;0.20;;;;;;;10.08;71.29;100242.94;5040288;28;20036;-70
2023/04/26 04:32:01;;;;;;;0.22;0.20;;;;;;;10.87;68.85;100241.06;5040678;28;20037;-70
2023/04/26 04:34:26;;;;;;;0.50;0.20;;;;;;;10.51;69.82;100239.78;5022270;28;20053;-72
2023/04/26 04:36:52;;;;;;;0.30;0.20;;;;;;;10.14;70.71;100243.16;5039333;28;20049;-71
2023/04/26 04:39:18;;;;;;;0.45;0.30;;;;;;;9.78;72.65;100241.75;5039572;28;20052;-70
2023/04/26 04:41:50;;;;;;;0.40;0.20;;;;;;;9.59;73.29;100233.47;5035431;28;20497;-69
2023/04/26 04:44:17;;;;;;;0.60;0.22;;;;;;;9.43;73.65;100233.06;5037412;28;20133;-69
2023/04/26 04:46:43;;;;;;;0.85;0.40;;;;;;;9.79;72.27;100238.84;5040757;28;20052;-70
2023/04/26 04:49:10;;;;;;;0.30;0.20;;;;;;;11.19;66.89;100241.06;5038517;28;20033;-69
2023/04/26 04:51:35;;;;;;;2.03;0.40;;;;;;;10.79;68.00;100241.31;5034572;28;20484;-70
2023/04/26 04:54:10;;;;;;;1.85;0.40;;;;;;;10.25;70.01;100239.81;5040327;28;20042;-71
2023/04/26 04:56:36;;;;;;;1.45;0.40;;;;;;;10.80;68.38;100240.28;5043634;28;20048;-71
2023/04/26 04:59:01;;;;;;;0.90;0.32;;;;;;;11.56;64.43;100242.09;5045355;28;20033;-69
2023/04/26 05:01:27;;;;;;;1.60;0.38;;;;;;;11.94;62.03;100235.75;5045222;28;20057;-71
2023/04/26 05:03:52;;;;;;;1.98;0.30;;;;;;;11.98;61.08;100239.66;5041529;28;20029;-70
2023/04/26 05:06:17;;;;;;;1.67;0.50;;;;;;;12.20;59.80;100230.09;5025251;28;20089;-70
2023/04/26 05:08:43;;;;;;;1.38;0.30;;;;;;;11.10;61.23;100235.16;5044248;28;20147;-71
2023/04/26 05:11:08;;;;;;;1.05;0.40;;;;;;;9.98;63.26;100242.56;5042398;28;20069;-72
2023/04/26 05:13:34;;;;;;;2.00;0.30;;;;;;;8.42;69.16;100240.00;5043405;28;20093;-71
2023/04/26 05:15:59;;;;;;;0.43;0.40;;;;;;;7.53;74.38;100256.69;5041076;28;20096;-71
2023/04/26 05:18:25;;;;;;;1.25;0.50;;;;;;;7.20;81.60;100303.72;5039676;28;20030;-71
2023/04/26 05:20:50;;;;;;;1.27;0.40;;;;;;;6.99;84.71;100291.97;5023211;28;20026;-72
2023/04/26 05:23:16;;;;;;;2.67;1.25;;;;;;;7.20;83.41;100266.25;5039866;28;20108;-73
2023/04/26 05:25:41;;;;;;;0.95;0.50;;;;;;;6.82;86.56;100274.47;5039944;28;20475;-72
2023/04/26 05:28:11;;;;;;;0.85;0.35;;;;;;;6.95;86.54;100274.63;5040227;28;20034;-72
2023/04/26 05:30:37;;;;;;;0.70;0.30;;;;;;;7.36;83.50;100271.34;5024025;28;20053;-71
2023/04/26 05:33:02;;;;;;;2.05;0.45;;;;;;;7.58;81.45;100274.00;5023772;28;20030;-71
2023/04/26 05:35:27;;;;;;;1.10;0.40;;;;;;;7.62;79.84;100268.09;5040182;28;20048;-69
2023/04/26 05:37:53;;;;;;;0.38;0.38;;;;;;;7.69;80.83;100278.88;5040387;28;20137;-70
2023/04/26 05:40:18;;;;;;;1.58;0.30;;;;;;;7.84;80.20;100286.81;5040453;28;20110;-70
2023/04/26 05:42:44;;;;;;;1.75;0.40;;;;;;;7.79;79.97;100283.91;5039532;28;20044;-69
2023/04/26 05:45:09;;;;;;;0.60;0.40;;;;;;;7.98;78.84;100297.44;5040053;28;20040;-70
2023/04/26 05:47:35;;;;;;;1.17;0.50;;;;;;;8.26;78.02;100288.56;5040946;28;20029;-70
2023/04/26 05:50:01;;;;;;;1.80;0.40;;;;;;;8.28;77.95;100289.19;5041554;28;20037;-70
2023/04/26 05:52:27;;;;;;;0.60;0.40;;;;;;;8.32;77.17;100298.50;5041608;28;20089;-70
2023/04/26 05:54:52;;;;;;;1.10;0.40;;;;;;;8.23;77.54;100302.34;5040860;28;20029;-70
2023/04/26 05:57:18;;;;;;;1.50;0.40;;;;;;;8.64;76.64;100293.53;5040821;28;20044;-70
2023/04/26 05:59:44;;;;;;;0.70;0.40;;;;;;;9.06;75.52;100303.19;5041704;28;20281;-70
2023/04/26 06:02:10;;;;;;;1.02;0.30;;;;;;;8.94;75.57;100275.31;5040945;28;20048;-70
2023/04/26 06:04:36;;;;;;;0.77;0.40;;;;;;;9.37;74.30;100294.63;5041452;28;20026;-71
2023/04/26 06:07:02;;;;;;;0.75;0.38;;;;;;;9.68;73.54;100295.91;5041167;28;20390;-70
2023/04/26 06:09:30;;;;;;;0.75;0.38;;;;;;;9.61;73.12;100295.91;5040322;28;20025;-70
2023/04/26 06:11:55;;;;;;;0.40;0.40;;;;;;;9.91;72.51;100302.72;5039975;28;20113;-70
2023/04/26 06:14:21;;;;;;;3.17;0.40;;;;;;;10.03;72.11;100293.84;5007270;28;20025;-70
2023/04/26 06:16:46;;;;;;;0.65;0.28;;;;;;;9.85;72.50;100307.88;5040148;28;20029;-69
2023/04/26 06:19:12;;;;;;;0.82;0.40;;;;;;;9.64;72.77;100303.53;5034824;28;20037;-70
2023/04/26 06:21:37;;;;;;;0.47;0.40;;;;;;;9.58;73.63;100308.91;5037493;28;20029;-71
2023/04/26 06:24:03;;;;;;;0.93;0.40;;;;;;;9.54;73.14;100299.63;5035865;28;20029;-69
2023/04/26 06:26:30;;;;;;;1.48;0.40;;;;;;;9.57;73.50;100299.19;5035622;28;20025;-70
2023/04/26 06:28:55;;;;;;;2.40;0.55;;;;;;;9.34;74.95;100305.78;5022298;28;20048;-71
2023/04/26 06:31:21;;;;;;;1.60;0.38;;;;;;;8.71;72.65;100297.09;5039302;28;20033;-71
2023/04/26 06:33:47;;;;;;;0.60;0.30;;;;;;;8.72;70.39;100308.66;5039290;28;20037;-71
2023/04/26 06:36:13;;;;;;;1.35;0.52;;;;;;;8.62;69.11;100291.06;5038669;28;20049;-70
2023/04/26 06:38:39;;;;;;;1.08;0.40;;;;;;;8.72;67.86;100314.00;5040328;28;20029;-70
2023/04/26 06:41:04;;;;;;;2.83;0.75;;;;;;;8.82;67.07;100317.97;5039301;28;20029;-70
2023/04/26 06:43:30;;;;;;;1.75;0.40;;;;;;;8.72;66.80;100308.66;5022608;28;20033;-70
2023/04/26 06:45:55;;;;;;;1.38;0.60;;;;;;;8.45;66.52;100311.19;5040515;28;20018;-71
2023/04/26 06:48:21;;;;;;;1.40;0.60;;;;;;;8.91;65.38;100281.91;5041114;28;20068;-70
2023/04/26 06:50:46;;;;;;;1.70;0.40;;;;;;;9.31;65.28;100316.09;5041676;28;20109;-70
2023/04/26 06:53:12;;;;;;;1.30;0.50;;;;;;;9.21;64.11;100308.44;5040347;28;20033;-70
2023/04/26 06:55:37;;;;;;;1.83;0.40;;;;;;;8.84;65.96;100299.84;5038720;28;20025;-70
2023/04/26 06:58:03;;;;;;;4.03;0.60;;;;;;;9.09;65.32;100315.41;5022573;28;20025;-70
2023/04/26 07:00:29;;;;;;;0.20;0.20;;;;;;;9.32;63.48;100326.63;5039868;28;20556;-70
2023/04/26 07:02:54;;;;;;;0.40;0.20;;;;;;;9.29;62.85;100329.69;5040544;28;20130;-69
2023/04/26 07:05:20;;;;;;;0.90;0.30;;;;;;;9.36;62.90;100335.09;5037746;28;20033;-72
2023/04/26 07:07:46;;;;;;;3.28;0.50;;;;;;;9.16;64.54;100314.38;5036984;28;20043;-71
2023/04/26 07:10:12;;;;;;;2.30;0.30;;;;;;;9.09;63.76;100320.75;5038897;28;20031;-70
2023/04/26 07:12:38;;;;;;;0.93;0.60;;;;;;;9.55;62.50;100333.50;5020677;28;20022;-70
2023/04/26 07:15:05;;;;;;;1.13;0.40;;;;;;;9.78;62.43;100347.38;5038663;28;20029;-71
2023/04/26 07:17:31;;;;;;;1.00;0.38;;;;;;;9.44;62.11;100340.28;5038597;28;20052;-69
2023/04/26 07:19:57;;;;;;;1.40;0.40;;;;;;;8.97;64.27;100346.50;5037583;28;20045;-69
2023/04/26 07:22:23;;;;;;;1.17;0.43;;;;;;;8.95;64.63;100346.72;5038118;28;20029;-68
2023/04/26 07:24:48;;;;;;;1.13;0.40;;;;;;;8.96;63.76;100337.63;5037665;28;20028;-69
2023/04/26 07:27:13;;;;;;;1.48;0.40;;;;;;;9.05;63.99;100349.03;5037595;28;20485;-69
2023/04/26 07:29:39;;;;;;;0.65;0.30;;;;;;;9.05;63.08;100355.22;5038224;28;20491;-69
2023/04/26 07:32:05;;;;;;;1.83;0.40;;;;;;;9.13;62.59;100335.44;5037242;28;20600;-69
2023/04/26 07:34:31;;;;;;;2.35;0.50;;;;;;;9.55;62.33;100352.28;5037113;28;20029;-70
2023/04/26 07:36:56;;;;;;;0.38;0.22;;;;;;;9.19;60.37;100356.09;5039104;28;20088;-71
2023/04/26 07:39:23;;;;;;;1.50;0.20;;;;;;;9.54;59.54;100361.38;5037976;28;20033;-71
2023/04/26 07:41:48;;;;;;;1.23;0.20;;;;;;;10.04;57.64;100368.06;5039346;28;20029;-71
2023/04/26 07:44:14;;;;;;;1.08;0.30;;;;;;;9.60;58.54;100369.47;5043341;28;20035;-71
2023/04/26 07:46:39;;;;;;;1.67;0.38;;;;;;;9.69;59.11;100370.09;5042505;28;20115;-70
2023/04/26 07:49:05;;;;;;;0.95;0.25;;;;;;;9.05;58.97;100316.84;5040430;28;20102;-71
2023/04/26 07:51:30;;;;;;;3.15;0.30;;;;;;;9.14;60.00;100370.16;5046078;28;20036;-72
2023/04/26 07:53:56;;;;;;;3.80;0.38;;;;;;;9.21;60.13;100372.03;5049157;28;20035;-71
2023/04/26 07:56:25;;;;;;;1.55;0.30;;;;;;;9.33;58.97;100373.09;5043807;28;20037;-71
2023/04/26 07:58:51;;;;;;;2.25;0.50;;;;;;;9.15;60.08;100381.69;5044814;28;20040;-72
2023/04/26 08:01:16;;;;;;;1.13;0.30;;;;;;;9.10;60.04;100354.63;5044065;28;20049;-71
2023/04/26 08:03:42;;;;;;;1.17;0.40;;;;;;;9.21;57.98;100388.97;5044345;28;20458;-71
2023/04/26 08:06:07;;;;;;;1.48;0.40;;;;;;;9.17;57.90;100375.13;5026275;28;20485;-71
2023/04/26 08:08:39;;;;;;;1.00;0.32;;;;;;;9.25;56.80;100390.22;5040116;28;20492;-71
2023/04/26 08:11:06;;;;;;;1.30;0.40;;;;;;;9.82;55.00;100393.47;5040771;28;20033;-71
2023/04/26 08:13:32;;;;;;;0.77;0.30;;;;;;;9.94;54.39;100356.06;5042747;28;20459;-72
2023/04/26 08:15:57;;;;;;;0.70;0.50;;;;;;;10.02;55.19;100394.31;5043180;28;20037;-72
2023/04/26 08:18:22;;;;;;;0.95;0.28;;;;;;;9.74;55.33;100389.13;5045840;28;20404;-71
2023/04/26 08:20:48;;;;;;;0.60;0.30;;;;;;;9.64;55.74;100392.19;5046653;28;20029;-71
2023/04/26 08:23:13;;;;;;;1.60;0.30;;;;;;;9.37;57.49;100403.88;5045367;28;20119;-72
2023/04/26 08:25:39;;;;;;;1.00;0.30;;;;;;;9.06;58.14;100404.38;5045050;28;20056;-71
2023/04/26 08:28:06;;;;;;;0.80;0.32;;;;;;;9.29;56.91;100396.81;5043828;28;20021;-71
2023/04/26 08:30:33;;;;;;;0.95;0.30;;;;;;;9.49;56.00;100414.88;5043875;28;20053;-71
2023/04/26 08:33:00;;;;;;;2.95;0.68;;;;;;;9.38;56.06;100411.75;5044153;28;20382;-72
2023/04/26 08:35:25;;;;;;;0.47;0.30;;;;;;;9.74;54.53;100416.00;5010419;28;20029;-71
2023/04/26 08:37:50;;;;;;;1.65;0.43;;;;;;;9.73;53.70;100394.69;5043049;28;20049;-70
2023/04/26 08:40:22;;;;;;;2.38;0.40;;;;;;;9.68;54.11;100408.72;5049206;28;20029;-70
2023/04/26 08:42:48;;;;;;;1.48;0.40;;;;;;;9.32;57.15;100409.03;5057447;28;20495;-71
2023/04/26 08:45:15;;;;;;;1.27;0.30;;;;;;;9.25;57.04;100421.59;5041187;28;20556;-71
2023/04/26 08:47:48;;;;;;;0.40;0.30;;;;;;;9.62;56.07;100425.66;5048051;28;20080;-72
2023/04/26 08:50:15;;;;;;;1.20;0.30;;;;;;;10.29;53.84;100421.25;5057269;28;20033;-72
2023/04/26 08:52:42;;;;;;;1.52;0.40;;;;;;;9.50;54.51;100427.25;5043439;28;20132;-73
2023/04/26 08:55:09;;;;;;;1.98;0.40;;;;;;;9.56;55.00;100438.03;5038925;28;20416;-72
2023/04/26 08:57:35;;;;;;;1.65;0.30;;;;;;;9.47;55.38;100438.41;5018862;28;20026;-71
2023/04/26 09:00:04;;;;;;;1.30;0.38;;;;;;;9.66;55.51;100440.34;5019710;28;20064;-71
2023/04/26 09:02:30;;;;;;;3.10;0.52;;;;;;;9.55;56.89;100424.81;5018043;28;20037;-72
2023/04/26 09:04:56;;;;;;;1.67;0.40;;;;;;;9.87;56.63;100423.25;5019926;28;20030;-71
2023/04/26 09:07:29;;;;;;;1.50;0.38;;;;;;;9.89;54.82;100432.75;5020517;28;20068;-70
2023/04/26 09:09:57;;;;;;;0.90;0.30;;;;;;;9.36;55.56;100443.31;5017917;28;20022;-71
2023/04/26 09:12:23;;;;;;;0.60;0.30;;;;;;;9.22;56.92;100427.38;5019259;28;20030;-70
2023/04/26 09:14:49;;;;;;;2.72;0.50;;;;;;;9.15;56.97;100440.75;5018468;28;20045;-70
2023/04/26 09:17:32;;;;;;;3.88;0.40;;;;;;;9.49;54.73;100423.75;5018716;28;20116;-71
2023/04/26 09:20:05;;;;;;;1.65;0.30;;;;;;;9.48;56.22;100445.44;5019020;28;20029;-71
2023/04/26 09:22:32;;;;;;;1.92;0.40;;;;;;;9.68;55.66;100448.22;5035858;28;20044;-71
2023/04/26 09:24:58;;;;;;;1.38;0.32;;;;;;;9.82;54.72;100444.53;5021070;28;20030;-72
2023/04/26 09:27:36;;;;;;;1.77;0.47;;;;;;;9.40;55.31;100451.81;5021318;28;20041;-71
2023/04/26 09:30:06;;;;;;;3.08;0.40;;;;;;;9.60;56.09;100455.41;5020858;28;20033;-69
2023/04/26 09:32:48;;;;;;;3.42;0.30;;;;;;;9.32;56.41;100457.34;5020576;28;20034;-70
2023/04/26 09:35:25;;;;;;;1.15;0.30;;;;;;;9.41;55.33;100457.00;5020282;28;20025;-71
2023/04/26 09:37:55;;;;;;;0.98;0.30;;;;;;;9.31;55.01;100467.28;5019477;28;20069;-71
2023/04/26 09:40:22;;;;;;;0.77;0.40;;;;;;;9.35;54.30;100465.84;5020301;28;20030;-70
2023/04/26 09:42:56;;;;;;;2.38;0.25;;;;;;;9.44;54.26;100468.34;5019717;28;20026;-70
2023/04/26 09:45:22;;;;;;;;;;;;;;;10.00;53.43;100477.03;5020062;28;20030;-70
2023/04/26 09:47:48;;;;;;;1.05;0.30;;;;;;;10.39;52.44;100480.00;5021459;28;19995;-70
2023/04/26 09:50:24;;;;;;;1.45;0.40;;;;;;;10.35;51.92;100485.78;5021515;28;20093;-71
2023/04/26 09:52:49;;;;;;;0.85;0.35;;;;;;;9.57;54.13;100460.34;5021444;28;20128;-72
2023/04/26 09:55:26;;;;;;;1.63;0.32;;;;;;;9.51;54.41;100464.69;5019156;28;20062;-71
2023/04/26 09:57:52;;;;;;;1.45;0.40;;;;;;;9.11;56.08;100477.91;5020850;28;20022;-71
2023/04/26 10:00:18;;;;;;;2.95;0.43;;;;;;;9.03;56.32;100478.03;5020771;28;20034;-70
2023/04/26 10:02:45;;;;;;;1.60;0.40;;;;;;;9.62;55.30;100464.09;5021032;28;20025;-71
2023/04/26 10:05:11;;;;;;;1.20;0.35;;;;;;;9.88;53.76;100484.03;5019263;28;20049;-71
2023/04/26 10:07:37;;;;;;;0.50;0.30;;;;;;;9.72;53.71;100484.38;5003000;28;20378;-72
2023/04/26 10:10:04;;;;;;;0.40;0.20;;;;;;;9.38;53.32;100488.78;5020734;28;20069;-71
2023/04/26 10:12:29;;;;;;;0.88;0.20;;;;;;;10.20;51.74;100482.44;5021368;28;20022;-71
2023/04/26 10:14:56;;;;;;;0.25;0.10;;;;;;;10.79;51.84;100483.50;5020621;28;20079;-71
2023/04/26 10:17:22;;;;;;;0.68;0.30;;;;;;;10.54;52.32;100486.03;5022066;28;20413;-71
2023/04/26 10:19:51;;;;;;;0.60;0.30;;;;;;;10.79;50.76;100492.44;5021777;28;20111;-71
2023/04/26 10:22:22;;;;;;;1.65;0.40;;;;;;;10.23;51.21;100473.13;5020612;28;20030;-71
2023/04/26 10:24:49;;;;;;;1.27;0.30;;;;;;;10.16;52.59;100491.94;5021239;28;20088;-74
2023/04/26 10:27:15;;;;;;;0.98;0.30;;;;;;;10.21;51.92;100492.16;5020634;28;20034;-73
2023/04/26 10:29:55;;;;;;;1.88;0.30;;;;;;;10.06;51.26;100494.19;5022043;28;20370;-72
2023/04/26 10:32:21;;;;;;;1.17;0.20;;;;;;;10.10;50.94;100498.16;5021309;28;20026;-73
2023/04/26 10:35:12;;;;;;;0.70;0.20;;;;;;;10.42;49.73;100503.81;5019326;28;20061;-73
2023/04/26 10:37:59;;;;;;;0.95;0.20;;;;;;;11.05;49.11;100509.59;5018978;28;20141;-71
2023/04/26 10:40:26;;;;;;;0.98;0.22;;;;;;;11.10;48.97;100511.66;5019437;28;20025;-70
2023/04/26 10:43:18;;;;;;;1.58;0.30;;;;;;;10.87;48.31;100512.09;5020814;28;20021;-70
2023/04/26 10:45:48;;;;;;;0.35;0.20;;;;;;;10.46;47.96;100518.50;5019473;28;20025;-69
2023/04/26 10:48:19;;;;;;;0.40;0.20;;;;;;;10.87;47.55;100515.63;5014499;28;20053;-70
2023/04/26 10:51:00;;;;;;;1.30;0.25;;;;;;;10.84;47.24;100509.81;5014779;28;20029;-69
2023/04/26 10:53:32;;;;;;;0.63;0.20;;;;;;;11.19;46.67;100527.41;5018472;28;20081;-69
2023/04/26 10:55:57;;;;;;;1.15;0.20;;;;;;;11.24;47.08;100522.19;5019505;28;20072;-76
2023/04/26 10:58:33;;;;;;;0.98;0.20;;;;;;;10.88;48.01;100527.22;5018449;28;20030;-71
2023/04/26 11:01:05;;;;;;;1.33;0.28;;;;;;;11.26;47.16;100525.50;5018740;28;20042;-68
2023/04/26 11:03:31;;;;;;;0.85;0.20;;;;;;;11.17;47.49;100512.47;5019275;28;20030;-67
2023/04/26 11:05:57;;;;;;;0.93;0.20;;;;;;;11.00;47.11;100523.69;5019350;28;20032;-70
2023/04/26 11:08:30;;;;;;;1.25;0.45;;;;;;;10.96;48.31;100521.59;5018489;28;20033;-72
2023/04/26 11:11:02;;;;;;;1.05;0.40;;;;;;;11.52;47.62;100524.63;5021571;28;20042;-69
2023/04/26 11:13:31;;;;;;;2.38;0.30;;;;;;;11.63;47.09;100538.47;5018256;28;20029;-70
2023/04/26 11:16:02;;;;;;;3.95;0.50;;;;;;;11.22;46.80;100534.19;5002842;28;20042;-71
2023/04/26 11:18:29;;;;;;;0.85;0.25;;;;;;;10.94;48.43;100548.75;5017865;28;20021;-69
2023/04/26 11:20:56;;;;;;;0.88;0.20;;;;;;;10.69;48.28;100534.25;5013773;28;20084;-71
2023/04/26 11:23:22;;;;;;;1.40;0.20;;;;;;;10.44;49.03;100536.72;5013810;28;20036;-69
2023/04/26 11:25:48;;;;;;;1.45;0.30;;;;;;;10.28;49.32;100530.69;5016317;28;20033;-70
2023/04/26 11:28:14;;;;;;;1.95;0.30;;;;;;;9.65;50.57;100525.47;5019243;28;20056;-72
2023/04/26 11:30:39;;;;;;;1.45;0.40;;;;;;;9.72;51.88;100562.31;5020130;28;20477;-70